createdAt,value
2022-09-20T00:01:32.063Z,86.20
2022-09-20T00:04:01.244Z,86.40
2022-09-20T00:06:31.059Z,86.70
2022-09-20T00:08:59.354Z,86.80
2022-09-20T00:11:29.760Z,86.70
2022-09-20T00:13:59.209Z,86.90
2022-09-20T00:16:31.773Z,87.00
2022-09-20T00:19:00.600Z,87.20
2022-09-20T00:21:29.820Z,87.20
2022-09-20T00:23:58.055Z,87.10
2022-09-20T00:26:27.295Z,87.10
2022-09-20T00:28:55.348Z,87.30
2022-09-20T00:31:22.793Z,87.30
2022-09-20T00:34:08.500Z,87.40
2022-09-20T00:36:35.946Z,87.40
2022-09-20T00:39:04.363Z,87.60
2022-09-20T00:41:32.924Z,87.70
2022-09-20T00:44:01.170Z,87.80
2022-09-20T00:46:43.217Z,87.80
2022-09-20T00:49:18.561Z,87.90
2022-09-20T00:51:51.019Z,88.10
2022-09-20T00:54:20.817Z,88.20
2022-09-20T00:56:49.019Z,88.20
2022-09-20T00:59:26.745Z,88.30
2022-09-20T01:02:03.706Z,88.30
2022-09-20T01:04:31.099Z,88.30
2022-09-20T01:07:01.971Z,88.30
2022-09-20T01:09:29.331Z,88.30
2022-09-20T01:12:01.476Z,88.20
2022-09-20T01:14:28.910Z,88.20
2022-09-20T01:17:01.671Z,88.30
2022-09-20T01:19:53.986Z,88.40
2022-09-20T01:22:34.215Z,88.30
2022-09-20T01:25:12.344Z,88.40
2022-09-20T01:27:47.096Z,88.60
2022-09-20T01:30:49.254Z,88.60
2022-09-20T01:33:22.769Z,88.90
2022-09-20T01:35:54.397Z,88.90
2022-09-20T01:38:34.456Z,89.20
2022-09-20T01:41:11.179Z,89.20
2022-09-20T01:44:12.225Z,89.20
2022-09-20T01:46:43.041Z,89.20
2022-09-20T01:49:35.412Z,89.20
2022-09-20T01:52:40.553Z,89.40
2022-09-20T01:55:16.749Z,89.60
2022-09-20T01:57:50.057Z,89.40
2022-09-20T02:00:31.757Z,89.50
2022-09-20T02:03:29.403Z,89.40
2022-09-20T02:06:32.611Z,89.50
2022-09-20T02:09:30.146Z,89.40
2022-09-20T02:12:30.515Z,89.40
2022-09-20T02:15:10.182Z,89.40
2022-09-20T02:17:55.028Z,89.40
2022-09-20T02:20:25.390Z,89.10
2022-09-20T02:23:26.936Z,89.00
2022-09-20T02:26:13.715Z,89.00
2022-09-20T02:28:59.158Z,89.00
2022-09-20T02:31:51.455Z,89.10
2022-09-20T02:34:40.474Z,89.30
2022-09-20T02:37:31.606Z,89.50
2022-09-20T02:40:17.708Z,89.70
2022-09-20T02:43:07.509Z,89.70
2022-09-20T02:45:45.228Z,89.70
2022-09-20T02:48:17.300Z,89.70
2022-09-20T02:51:16.768Z,89.70
2022-09-20T02:54:10.025Z,89.60
2022-09-20T02:57:13.678Z,89.70
2022-09-20T02:59:53.051Z,89.60
2022-09-20T03:02:30.173Z,89.70
2022-09-20T03:05:19.197Z,89.70
2022-09-20T03:07:53.371Z,89.70
2022-09-20T03:10:28.954Z,89.70
2022-09-20T03:13:13.068Z,89.80
2022-09-20T03:15:58.226Z,89.90
2022-09-20T03:18:34.647Z,89.90
2022-09-20T03:21:11.653Z,90.00
2022-09-20T03:23:41.858Z,90.10
2022-09-20T03:26:50.628Z,90.10
2022-09-20T03:29:50.096Z,90.20
2022-09-20T03:32:26.386Z,90.30
2022-09-20T03:35:28.036Z,90.40
2022-09-20T03:38:26.254Z,90.50
2022-09-20T03:41:32.364Z,90.50
2022-09-20T03:44:26.413Z,90.60
2022-09-20T03:47:10.630Z,90.70
2022-09-20T03:49:58.370Z,90.70
2022-09-20T03:53:10.290Z,90.80
2022-09-20T03:56:15.242Z,90.80
2022-09-20T03:59:01.322Z,90.90
2022-09-20T04:01:51.309Z,90.90
2022-09-20T04:04:55.801Z,90.90
2022-09-20T04:07:41.472Z,90.90
2022-09-20T04:10:43.738Z,91.00
2022-09-20T04:13:37.598Z,91.00
2022-09-20T04:16:27.355Z,91.10
2022-09-20T04:19:00.868Z,91.10
2022-09-20T04:21:47.047Z,91.10
2022-09-20T04:24:53.171Z,91.10
2022-09-20T04:27:38.642Z,91.00
2022-09-20T04:30:30.190Z,91.00
2022-09-20T04:33:11.813Z,91.00
2022-09-20T04:36:06.990Z,91.00
2022-09-20T04:38:35.883Z,91.00
2022-09-20T04:41:52.914Z,91.10
2022-09-20T04:44:27.860Z,91.00
2022-09-20T04:47:16.452Z,91.00
2022-09-20T04:50:10.992Z,91.00
2022-09-20T04:52:53.630Z,91.00
2022-09-20T04:55:26.867Z,91.00
2022-09-20T04:58:04.760Z,90.90
2022-09-20T05:01:03.166Z,90.80
2022-09-20T05:04:00.890Z,90.70
2022-09-20T05:07:12.484Z,90.70
2022-09-20T05:10:21.712Z,90.50
2022-09-20T05:13:05.355Z,90.50
2022-09-20T05:15:43.534Z,90.20
2022-09-20T05:18:23.555Z,90.00
2022-09-20T05:21:15.010Z,89.30
2022-09-20T05:23:55.372Z,89.40
2022-09-20T05:26:40.539Z,89.50
2022-09-20T05:29:35.098Z,89.80
2022-09-20T05:32:05.574Z,89.50
2022-09-20T05:34:52.146Z,89.70
2022-09-20T05:37:46.990Z,89.70
2022-09-20T05:40:22.506Z,89.40
2022-09-20T05:43:00.338Z,89.50
2022-09-20T05:45:52.566Z,89.50
2022-09-20T05:48:45.668Z,89.60
2022-09-20T05:51:29.265Z,89.60
2022-09-20T05:54:40.723Z,89.60
2022-09-20T05:57:15.148Z,89.40
2022-09-20T06:00:07.140Z,89.00
2022-09-20T06:03:09.256Z,88.90
2022-09-20T06:05:58.223Z,89.00
2022-09-20T06:08:46.725Z,88.90
2022-09-20T06:11:32.786Z,89.10
2022-09-20T06:14:21.499Z,89.10
2022-09-20T06:17:02.606Z,89.40
2022-09-20T06:19:48.387Z,89.40
2022-09-20T06:22:49.129Z,89.60
2022-09-20T06:25:43.008Z,89.60
2022-09-20T06:28:44.701Z,89.40
2022-09-20T06:31:12.151Z,89.40
2022-09-20T06:33:46.123Z,90.10
2022-09-20T06:36:44.338Z,89.80
2022-09-20T06:39:46.394Z,89.60
2022-09-20T06:42:13.660Z,89.40
2022-09-20T06:44:43.226Z,89.20
2022-09-20T06:47:11.886Z,89.00
2022-09-20T06:49:42.471Z,89.00
2022-09-20T06:52:15.516Z,88.70
2022-09-20T06:54:45.820Z,88.70
2022-09-20T06:57:16.871Z,88.60
2022-09-20T06:59:44.782Z,88.30
2022-09-20T07:02:12.231Z,87.90
2022-09-20T07:04:39.970Z,87.60
2022-09-20T07:07:09.624Z,87.10
2022-09-20T07:09:37.392Z,86.80
2022-09-20T07:12:04.744Z,87.10
2022-09-20T07:14:32.211Z,85.80
2022-09-20T07:16:59.624Z,84.60
2022-09-20T07:19:26.954Z,84.90
2022-09-20T07:21:54.308Z,84.40
2022-09-20T07:24:21.546Z,84.50
2022-09-20T07:27:15.418Z,84.30
2022-09-20T07:29:42.812Z,82.90
2022-09-20T07:32:10.448Z,82.60
2022-09-20T07:34:37.678Z,81.80
2022-09-20T07:37:05.570Z,82.00
2022-09-20T07:39:32.892Z,82.80
2022-09-20T07:42:01.300Z,82.50
2022-09-20T07:44:28.675Z,82.60
2022-09-20T07:47:00.316Z,83.40
2022-09-20T07:49:31.767Z,82.60
2022-09-20T07:51:59.182Z,82.70
2022-09-20T07:54:27.564Z,82.00
2022-09-20T07:56:55.040Z,82.20
2022-09-20T07:59:22.473Z,81.30
2022-09-20T08:01:50.033Z,81.50
2022-09-20T08:04:18.126Z,82.40
2022-09-20T08:06:46.476Z,82.30
2022-09-20T08:09:14.504Z,81.50
2022-09-20T08:11:43.462Z,81.30
2022-09-20T08:14:15.659Z,80.60
2022-09-20T08:16:46.426Z,81.40
2022-09-20T08:19:19.608Z,80.40
2022-09-20T08:21:47.491Z,81.30
2022-09-20T08:24:16.312Z,79.70
2022-09-20T08:26:44.474Z,79.50
2022-09-20T08:29:12.103Z,79.40
2022-09-20T08:31:40.366Z,78.20
2022-09-20T08:34:09.930Z,79.30
2022-09-20T08:36:41.310Z,78.90
2022-09-20T08:42:18.017Z,78.50
2022-09-20T08:45:01.433Z,77.60
2022-09-20T08:47:44.894Z,77.70
2022-09-20T08:50:18.769Z,79.00
2022-09-20T08:52:49.265Z,79.30
2022-09-20T08:55:19.891Z,78.00
2022-09-20T08:57:54.250Z,78.30
2022-09-20T09:00:24.260Z,78.70
2022-09-20T09:02:55.791Z,79.40
2022-09-20T09:05:32.782Z,79.80
2022-09-20T09:08:10.600Z,79.60
2022-09-20T09:10:43.098Z,78.50
2022-09-20T09:13:29.056Z,78.10
2022-09-20T09:16:00.865Z,78.00
2022-09-20T09:18:34.958Z,78.30
2022-09-20T09:21:05.102Z,78.00
2022-09-20T09:23:45.016Z,78.60
2022-09-20T09:26:21.414Z,80.60
2022-09-20T09:29:18.428Z,82.50
2022-09-20T09:31:49.188Z,85.30
2022-09-20T09:34:30.443Z,88.20
2022-09-20T09:36:58.703Z,89.50
2022-09-20T09:39:29.038Z,91.00
2022-09-20T09:42:00.984Z,91.80
2022-09-20T09:44:30.905Z,92.00
2022-09-20T09:46:58.129Z,92.00
2022-09-20T09:49:26.675Z,92.10
2022-09-20T09:52:04.871Z,92.10
2022-09-20T09:54:36.738Z,91.70
2022-09-20T09:57:07.024Z,91.50
2022-09-20T10:00:03.010Z,91.20
2022-09-20T10:02:32.613Z,91.30
2022-09-20T10:05:18.247Z,91.60
2022-09-20T10:07:50.830Z,91.70
2022-09-20T10:10:30.183Z,91.50
2022-09-20T10:13:09.809Z,91.80
2022-09-20T10:15:42.808Z,90.70
2022-09-20T10:18:31.363Z,89.70
2022-09-20T10:20:58.583Z,89.70
2022-09-20T10:24:02.598Z,88.60
2022-09-20T10:26:36.531Z,88.30
2022-09-20T10:29:29.227Z,86.60
2022-09-20T10:32:21.209Z,87.70
2022-09-20T10:35:03.471Z,87.50
2022-09-20T10:37:49.256Z,85.20
2022-09-20T10:41:07.123Z,82.90
2022-09-20T10:44:19.387Z,83.10
2022-09-20T10:47:21.474Z,78.10
2022-09-20T10:49:54.039Z,75.80
2022-09-20T10:52:46.173Z,75.20
2022-09-20T10:55:35.676Z,76.90
2022-09-20T10:58:31.353Z,74.60
2022-09-20T11:01:13.199Z,70.70
2022-09-20T11:04:02.465Z,71.50
2022-09-20T11:06:46.792Z,72.70
2022-09-20T11:09:20.067Z,72.40
2022-09-20T11:11:54.415Z,74.20
2022-09-20T11:14:32.735Z,74.50
2022-09-20T11:17:15.900Z,75.90
2022-09-20T11:20:06.213Z,76.60
2022-09-20T11:22:50.767Z,77.50
2022-09-20T11:25:21.555Z,78.50
2022-09-20T11:28:11.962Z,78.50
2022-09-20T11:30:50.289Z,78.90
2022-09-20T11:33:47.774Z,78.60
2022-09-20T11:36:39.545Z,78.20
2022-09-20T11:39:22.371Z,78.10
2022-09-20T11:41:54.227Z,77.30
2022-09-20T11:44:22.494Z,77.60
2022-09-20T11:47:02.023Z,77.20
2022-09-20T11:49:31.300Z,75.50
2022-09-20T11:52:17.449Z,74.30
2022-09-20T11:55:14.968Z,72.40
2022-09-20T11:57:42.693Z,73.00
2022-09-20T12:00:10.380Z,75.00
2022-09-20T12:02:51.788Z,78.30
2022-09-20T12:05:32.519Z,80.60
2022-09-20T12:08:06.804Z,82.10
2022-09-20T12:10:40.105Z,83.70
2022-09-20T12:13:19.975Z,84.60
2022-09-20T12:16:02.428Z,85.10
2022-09-20T12:18:35.778Z,86.60
2022-09-20T12:21:07.446Z,87.20
2022-09-20T12:23:40.798Z,87.90
2022-09-20T12:26:13.240Z,87.90
2022-09-20T12:28:45.940Z,87.10
2022-09-20T12:31:22.038Z,87.30
2022-09-20T12:34:05.150Z,88.40
2022-09-20T12:36:40.031Z,89.30
2022-09-20T12:39:17.554Z,90.00
2022-09-20T12:42:05.612Z,89.80
2022-09-20T12:44:51.042Z,89.80
2022-09-20T12:47:24.485Z,90.00
2022-09-20T12:50:12.789Z,89.50
2022-09-20T12:52:58.697Z,89.10
2022-09-20T12:55:50.389Z,88.50
2022-09-20T12:58:22.993Z,88.00
2022-09-20T13:00:57.735Z,87.10
2022-09-20T13:03:29.503Z,86.90
2022-09-20T13:06:15.599Z,84.90
2022-09-20T13:09:04.935Z,84.10
2022-09-20T13:11:43.713Z,84.30
2022-09-20T13:14:22.776Z,84.40
2022-09-20T13:16:54.649Z,85.20
2022-09-20T13:19:38.977Z,85.50
2022-09-20T13:22:12.269Z,85.90
2022-09-20T13:24:45.389Z,86.10
2022-09-20T13:27:19.771Z,85.60
2022-09-20T13:29:47.567Z,85.40
2022-09-20T13:32:25.046Z,85.10
2022-09-20T13:35:10.680Z,84.80
2022-09-20T13:38:02.643Z,84.90
2022-09-20T13:40:39.218Z,84.60
2022-09-20T13:43:27.699Z,84.20
2022-09-20T13:46:00.614Z,83.30
2022-09-20T13:48:29.803Z,83.60
2022-09-20T13:50:58.093Z,83.50
2022-09-20T13:53:41.076Z,83.30
2022-09-20T13:56:22.645Z,83.10
2022-09-20T13:58:51.313Z,83.10
2022-09-20T14:01:29.182Z,83.10
2022-09-20T14:04:13.239Z,83.50
2022-09-20T14:06:42.342Z,83.30
2022-09-20T14:09:28.864Z,83.00
2022-09-20T14:11:58.007Z,82.00
2022-09-20T14:14:26.315Z,82.00
2022-09-20T14:16:55.564Z,81.50
2022-09-20T14:19:33.213Z,81.50
2022-09-20T14:22:05.026Z,81.20
2022-09-20T14:24:37.379Z,80.40
2022-09-20T14:27:12.470Z,80.50
2022-09-20T14:29:42.273Z,81.00
2022-09-20T14:32:18.660Z,78.80
2022-09-20T14:34:48.789Z,78.90
2022-09-20T14:37:29.113Z,79.10
2022-09-20T14:39:59.658Z,78.60
2022-09-20T14:42:35.996Z,79.20
2022-09-20T14:45:06.229Z,80.00
2022-09-20T14:47:39.871Z,78.10
2022-09-20T14:50:34.027Z,79.00
2022-09-20T14:53:13.233Z,78.60
2022-09-20T14:55:56.586Z,78.60
2022-09-20T14:58:26.150Z,78.60
2022-09-20T15:01:05.280Z,78.90
2022-09-20T15:03:41.249Z,78.60
2022-09-20T15:06:12.809Z,79.50
2022-09-20T15:08:45.517Z,80.40
2022-09-20T15:11:20.454Z,82.20
2022-09-20T15:13:47.824Z,81.90
2022-09-20T15:16:18.426Z,82.10
2022-09-20T15:18:47.200Z,82.50
2022-09-20T15:21:14.980Z,82.10
2022-09-20T15:23:42.363Z,82.40
2022-09-20T15:26:13.323Z,81.90
2022-09-20T15:28:40.840Z,81.50
2022-09-20T15:31:09.875Z,80.60
2022-09-20T15:33:37.190Z,81.10
2022-09-20T15:36:04.852Z,82.10
2022-09-20T15:38:32.144Z,82.60
2022-09-20T15:41:04.568Z,83.00
2022-09-20T15:43:32.746Z,83.50
2022-09-20T15:46:21.263Z,83.60
2022-09-20T15:48:49.049Z,82.80
2022-09-20T15:51:16.754Z,83.20
2022-09-20T15:53:46.195Z,84.00
2022-09-20T15:56:21.811Z,84.40
2022-09-20T15:59:00.917Z,84.30
2022-09-20T16:01:39.797Z,85.40
2022-09-20T16:04:10.291Z,87.20
2022-09-20T16:06:39.469Z,87.00
2022-09-20T16:09:07.568Z,87.20
2022-09-20T16:11:35.715Z,87.90
2022-09-20T16:14:03.873Z,88.30
2022-09-20T16:16:37.391Z,88.80
2022-09-20T16:19:23.773Z,89.00
2022-09-20T16:21:58.960Z,89.80
2022-09-20T16:24:35.090Z,89.10
2022-09-20T16:27:05.275Z,89.30
2022-09-20T16:29:33.351Z,89.40
2022-09-20T16:32:03.392Z,89.40
2022-09-20T16:34:35.840Z,89.20
2022-09-20T16:37:06.443Z,89.30
2022-09-20T16:39:34.692Z,89.70
2022-09-20T16:42:04.876Z,89.60
2022-09-20T16:44:34.269Z,89.70
2022-09-20T16:47:02.971Z,89.50
2022-09-20T16:49:30.237Z,89.40
2022-09-20T16:51:57.705Z,89.40
2022-09-20T16:54:28.474Z,89.60
2022-09-20T16:56:58.466Z,89.50
2022-09-20T16:59:26.006Z,89.50
2022-09-20T17:01:53.343Z,89.60
2022-09-20T17:04:21.231Z,90.00
2022-09-20T17:06:50.203Z,90.10
2022-09-20T17:09:17.937Z,90.10
2022-09-20T17:11:47.906Z,90.30
2022-09-20T17:14:17.288Z,90.40
2022-09-20T17:16:48.205Z,90.60
2022-09-20T17:19:18.604Z,90.70
2022-09-20T17:21:50.082Z,90.90
2022-09-20T17:24:22.300Z,90.90
2022-09-20T17:26:50.713Z,91.00
2022-09-20T17:29:19.662Z,91.10
2022-09-20T17:31:55.134Z,91.10
2022-09-20T17:34:23.933Z,91.20
2022-09-20T17:36:51.318Z,91.20
2022-09-20T17:39:18.843Z,91.30
2022-09-20T17:41:48.067Z,91.30
2022-09-20T17:44:16.086Z,91.30
2022-09-20T17:46:45.431Z,91.30
2022-09-20T17:49:14.944Z,91.30
2022-09-20T17:51:43.960Z,91.40
2022-09-20T17:54:15.296Z,91.50
2022-09-20T17:56:44.978Z,91.40
2022-09-20T17:59:14.468Z,91.40
2022-09-20T18:01:42.800Z,91.40
2022-09-20T18:04:10.866Z,91.40
2022-09-20T18:06:49.612Z,91.40
2022-09-20T18:09:23.125Z,91.50
2022-09-20T18:11:54.545Z,91.50
2022-09-20T18:14:24.421Z,91.70
2022-09-20T18:16:53.010Z,91.70
2022-09-20T18:19:22.557Z,91.70
2022-09-20T18:21:50.268Z,91.80
2022-09-20T18:24:17.854Z,91.90
2022-09-20T18:26:45.280Z,91.90
2022-09-20T18:29:16.794Z,92.00
2022-09-20T18:31:54.502Z,92.00
2022-09-20T18:34:24.539Z,92.10
2022-09-20T18:36:54.175Z,92.00
2022-09-20T18:39:23.034Z,91.90
2022-09-20T18:41:51.023Z,91.90
2022-09-20T18:44:18.798Z,91.90
2022-09-20T18:46:46.544Z,91.90
2022-09-20T18:49:16.252Z,92.00
2022-09-20T18:51:44.877Z,92.10
2022-09-20T18:54:12.609Z,92.20
2022-09-20T18:56:41.963Z,92.20
2022-09-20T18:59:29.901Z,92.30
2022-09-20T19:02:05.578Z,92.50
2022-09-20T19:04:59.628Z,92.50
2022-09-20T19:08:12.242Z,92.50
2022-09-20T19:10:56.161Z,92.50
2022-09-20T19:13:48.360Z,92.50
2022-09-20T19:16:41.125Z,92.60
2022-09-20T19:19:52.084Z,92.60
2022-09-20T19:22:35.203Z,92.50
2022-09-20T19:25:05.278Z,92.50
2022-09-20T19:27:33.005Z,92.60
2022-09-20T19:30:00.597Z,92.60
2022-09-20T19:32:28.233Z,92.70
2022-09-20T19:34:57.315Z,92.70
2022-09-20T19:37:52.946Z,92.80
2022-09-20T19:40:35.860Z,92.90
2022-09-20T19:43:23.631Z,92.80
2022-09-20T19:46:17.261Z,92.70
2022-09-20T19:48:54.477Z,92.70
2022-09-20T19:51:22.757Z,92.80
2022-09-20T19:53:50.495Z,92.80
2022-09-20T19:56:26.420Z,92.80
2022-09-20T19:58:56.176Z,92.90
2022-09-20T20:01:25.262Z,92.90
2022-09-20T20:03:54.742Z,93.00
2022-09-20T20:06:41.122Z,93.00
2022-09-20T20:09:42.586Z,93.10
2022-09-20T20:12:31.097Z,93.20
2022-09-20T20:15:35.897Z,93.20
2022-09-20T20:18:31.299Z,93.30
2022-09-20T20:20:59.175Z,93.40
2022-09-20T20:23:43.691Z,93.80
2022-09-20T20:26:21.087Z,93.60
2022-09-20T20:28:48.451Z,93.70
2022-09-20T20:31:15.735Z,93.80
2022-09-20T20:33:43.435Z,93.80
2022-09-20T20:36:12.144Z,93.90
2022-09-20T20:38:41.141Z,93.90
2022-09-20T20:41:10.571Z,93.90
2022-09-20T20:43:40.900Z,94.00
2022-09-20T20:46:18.550Z,94.00
2022-09-20T20:48:47.961Z,94.00
2022-09-20T20:51:17.827Z,94.10
2022-09-20T20:53:48.692Z,94.00
2022-09-20T20:56:21.810Z,94.10
2022-09-20T20:58:49.658Z,94.10
2022-09-20T21:01:18.866Z,94.10
2022-09-20T21:03:48.785Z,94.10
2022-09-20T21:06:17.243Z,94.10
2022-09-20T21:08:49.322Z,94.10
2022-09-20T21:11:25.231Z,94.10
2022-09-20T21:13:54.622Z,94.40
2022-09-20T21:16:24.379Z,94.10
2022-09-20T21:18:51.853Z,94.10
2022-09-20T21:21:20.691Z,94.10
2022-09-20T21:23:51.004Z,94.10
2022-09-20T21:26:19.612Z,94.20
2022-09-20T21:28:52.319Z,94.10
2022-09-20T21:31:21.693Z,94.20
2022-09-20T21:33:49.387Z,94.20
2022-09-20T21:36:18.841Z,94.20
2022-09-20T21:38:46.681Z,94.20
2022-09-20T21:41:17.665Z,94.50
2022-09-20T21:43:46.799Z,94.20
2022-09-20T21:46:17.545Z,94.20
2022-09-20T21:48:46.660Z,94.20
2022-09-20T21:51:16.049Z,94.20
2022-09-20T21:53:43.289Z,94.20
2022-09-20T21:56:12.755Z,94.20
2022-09-20T21:58:40.879Z,94.20
2022-09-20T22:01:11.832Z,94.20
2022-09-20T22:03:41.971Z,94.20
2022-09-20T22:06:33.562Z,94.20
2022-09-20T22:09:03.884Z,94.20
2022-09-20T22:11:38.948Z,94.30
2022-09-20T22:14:07.113Z,94.30
2022-09-20T22:16:37.847Z,94.40
2022-09-20T22:19:06.965Z,94.50
2022-09-20T22:21:40.639Z,94.40
2022-09-20T22:24:10.593Z,94.50
2022-09-20T22:26:39.410Z,94.50
2022-09-20T22:29:07.059Z,94.50
2022-09-20T22:31:36.675Z,94.60
2022-09-20T22:34:06.223Z,94.60
2022-09-20T22:36:35.844Z,94.60
2022-09-20T22:39:05.087Z,94.60
2022-09-20T22:41:32.425Z,94.70
2022-09-20T22:44:00.127Z,94.80
2022-09-20T22:46:29.521Z,94.80
2022-09-20T22:48:57.116Z,94.90
2022-09-20T22:51:27.567Z,94.90
2022-09-20T22:53:55.324Z,95.00
2022-09-20T22:56:31.201Z,95.00
2022-09-20T22:59:03.016Z,95.10
2022-09-20T23:01:32.727Z,95.10
2022-09-20T23:04:07.605Z,95.10
2022-09-20T23:06:38.521Z,95.20
2022-09-20T23:09:08.091Z,95.20
2022-09-20T23:11:36.131Z,95.20
2022-09-20T23:14:05.853Z,95.20
2022-09-20T23:16:35.343Z,95.20
2022-09-20T23:19:03.864Z,95.20
2022-09-20T23:21:31.989Z,95.20
2022-09-20T23:24:01.962Z,95.30
2022-09-20T23:26:31.630Z,95.30
2022-09-20T23:29:01.801Z,95.30
2022-09-20T23:31:30.655Z,95.40
2022-09-20T23:34:00.378Z,95.40
2022-09-20T23:36:30.028Z,95.50
2022-09-20T23:38:57.991Z,95.50
2022-09-20T23:41:26.822Z,95.50
2022-09-20T23:43:54.812Z,95.50
2022-09-20T23:46:24.450Z,95.50
2022-09-20T23:48:52.179Z,95.50
2022-09-20T23:51:22.647Z,95.50
2022-09-20T23:53:51.368Z,95.60
2022-09-20T23:56:19.694Z,95.60
2022-09-20T23:58:47.992Z,95.70
